createdAt,value
2023-02-03T00:02:03.543Z,3.85
2023-02-03T00:04:30.043Z,4.05
2023-02-03T00:06:56.831Z,3.70
2023-02-03T00:09:23.389Z,4.25
2023-02-03T00:11:49.943Z,3.47
2023-02-03T00:14:17.264Z,3.78
2023-02-03T00:16:43.876Z,3.70
2023-02-03T00:19:10.383Z,4.05
2023-02-03T00:21:36.831Z,3.97
2023-02-03T00:24:03.396Z,5.03
2023-02-03T00:26:29.966Z,4.85
2023-02-03T00:28:56.545Z,4.15
2023-02-03T00:31:24.549Z,4.53
2023-02-03T00:33:56.284Z,4.93
2023-02-03T00:36:23.470Z,4.43
2023-02-03T00:38:50.173Z,3.75
2023-02-03T00:41:17.325Z,4.55
2023-02-03T00:43:44.253Z,3.78
2023-02-03T00:46:10.892Z,4.90
2023-02-03T00:48:37.429Z,4.00
2023-02-03T00:51:04.047Z,4.57
2023-02-03T00:53:30.544Z,4.63
2023-02-03T00:55:57.016Z,5.13
2023-02-03T00:58:23.482Z,5.15
2023-02-03T01:00:50.043Z,4.80
2023-02-03T01:03:16.838Z,6.05
2023-02-03T01:05:43.313Z,5.55
2023-02-03T01:08:09.728Z,6.15
2023-02-03T01:10:38.540Z,6.18
2023-02-03T01:13:05.007Z,6.28
2023-02-03T01:15:31.495Z,5.82
2023-02-03T01:17:57.981Z,6.25
2023-02-03T01:20:24.761Z,6.03
2023-02-03T01:22:51.447Z,6.47
2023-02-03T01:25:18.047Z,6.65
2023-02-03T01:27:44.559Z,7.05
2023-02-03T01:30:11.556Z,7.63
2023-02-03T01:32:38.028Z,7.95
2023-02-03T01:35:04.788Z,8.18
2023-02-03T01:37:31.403Z,7.90
2023-02-03T01:39:57.892Z,8.93
2023-02-03T01:42:24.451Z,8.82
2023-02-03T01:44:52.139Z,9.15
2023-02-03T01:47:33.520Z,8.27
2023-02-03T01:50:09.267Z,10.05
2023-02-03T01:52:36.913Z,9.40
2023-02-03T01:55:08.019Z,9.48
2023-02-03T01:57:40.225Z,9.25
2023-02-03T02:00:08.056Z,9.25
2023-02-03T02:02:34.711Z,9.65
2023-02-03T02:08:30.843Z,8.05
2023-02-03T02:10:59.358Z,8.05
2023-02-03T02:13:27.263Z,7.85
2023-02-03T02:16:16.092Z,8.23
2023-02-03T02:19:04.295Z,8.50
2023-02-03T02:21:59.639Z,7.82
2023-02-03T02:24:44.355Z,7.47
2023-02-03T02:27:19.582Z,7.32
2023-02-03T02:29:48.770Z,8.02
2023-02-03T02:32:31.277Z,7.85
2023-02-03T02:35:50.813Z,7.85
2023-02-03T02:38:53.102Z,7.80
2023-02-03T02:41:27.806Z,7.32
2023-02-03T02:44:17.774Z,7.50
2023-02-03T02:46:54.162Z,6.35
2023-02-03T02:49:32.738Z,5.80
2023-02-03T02:52:04.059Z,6.40
2023-02-03T02:54:33.584Z,6.20
2023-02-03T02:57:03.310Z,6.40
2023-02-03T02:59:29.933Z,6.28
2023-02-03T03:01:56.476Z,6.15
2023-02-03T03:04:26.974Z,5.90
2023-02-03T03:06:58.642Z,5.25
2023-02-03T03:09:36.688Z,5.22
2023-02-03T03:12:07.135Z,5.22
2023-02-03T03:14:36.441Z,5.85
2023-02-03T03:17:06.342Z,5.80
2023-02-03T03:19:39.803Z,4.85
2023-02-03T03:22:11.501Z,4.43
2023-02-03T03:24:43.762Z,4.70
2023-02-03T03:27:14.143Z,4.95
2023-02-03T03:29:44.490Z,4.88
2023-02-03T03:32:11.317Z,4.50
2023-02-03T03:34:38.027Z,5.22
2023-02-03T03:37:17.365Z,5.03
2023-02-03T03:39:52.352Z,4.70
2023-02-03T03:42:24.859Z,4.30
2023-02-03T03:44:59.333Z,4.28
2023-02-03T03:47:57.086Z,4.20
2023-02-03T03:50:47.430Z,3.85
2023-02-03T03:53:16.925Z,3.83
2023-02-03T03:55:48.788Z,4.13
2023-02-03T03:58:28.512Z,4.25
2023-02-03T04:00:58.039Z,4.43
2023-02-03T04:03:31.153Z,5.43
2023-02-03T04:05:57.657Z,4.85
2023-02-03T04:08:24.181Z,5.43
2023-02-03T04:10:50.671Z,5.60
2023-02-03T04:13:20.098Z,5.72
2023-02-03T04:15:46.855Z,5.78
2023-02-03T04:18:14.982Z,6.80
2023-02-03T04:20:42.031Z,7.32
2023-02-03T04:23:09.056Z,6.78
2023-02-03T04:25:35.542Z,7.80
2023-02-03T04:28:02.154Z,8.43
2023-02-03T04:30:28.913Z,8.95
2023-02-03T04:32:55.641Z,9.68
2023-02-03T04:35:22.216Z,10.52
2023-02-03T04:37:48.772Z,10.60
2023-02-03T04:40:15.692Z,12.20
2023-02-03T04:42:42.462Z,12.95
2023-02-03T04:45:10.741Z,13.52
2023-02-03T04:47:37.692Z,14.80
2023-02-03T04:50:04.323Z,16.48
2023-02-03T04:52:30.933Z,15.27
2023-02-03T04:54:57.445Z,17.98
2023-02-03T04:57:24.088Z,17.55
2023-02-03T04:59:50.745Z,18.88
2023-02-03T05:02:17.232Z,20.00
2023-02-03T05:04:43.862Z,21.23
2023-02-03T05:07:10.485Z,21.52
2023-02-03T05:09:37.118Z,23.38
2023-02-03T05:12:03.922Z,24.48
2023-02-03T05:14:30.555Z,25.63
2023-02-03T05:16:57.142Z,26.30
2023-02-03T05:19:23.693Z,28.95
2023-02-03T05:21:50.748Z,29.90
2023-02-03T05:24:17.268Z,31.27
2023-02-03T05:26:43.668Z,30.00
2023-02-03T05:29:11.727Z,34.83
2023-02-03T05:31:38.336Z,35.92
2023-02-03T05:34:04.995Z,39.50
2023-02-03T05:36:31.440Z,39.55
2023-02-03T05:38:57.981Z,40.97
2023-02-03T05:41:43.036Z,40.40
2023-02-03T05:44:09.541Z,39.55
2023-02-03T05:46:35.984Z,40.40
2023-02-03T05:49:02.420Z,41.60
2023-02-03T05:51:28.948Z,42.85
2023-02-03T05:53:55.411Z,41.13
2023-02-03T05:56:21.946Z,41.33
2023-02-03T05:58:48.500Z,41.55
2023-02-03T06:01:15.076Z,45.17
2023-02-03T06:03:43.253Z,43.20
2023-02-03T06:06:11.026Z,42.25
2023-02-03T06:08:37.488Z,44.67
2023-02-03T06:11:04.043Z,43.80
2023-02-03T06:13:30.522Z,43.15
2023-02-03T06:15:57.302Z,42.67
2023-02-03T06:18:23.755Z,45.33
2023-02-03T06:20:50.893Z,43.55
2023-02-03T06:23:19.061Z,42.47
2023-02-03T06:25:48.502Z,41.88
2023-02-03T06:28:15.067Z,41.15
2023-02-03T06:30:41.660Z,43.40
2023-02-03T06:33:08.574Z,41.00
2023-02-03T06:35:36.597Z,42.65
2023-02-03T06:38:03.067Z,40.88
2023-02-03T06:40:30.086Z,40.63
2023-02-03T06:42:56.861Z,42.92
2023-02-03T06:45:24.885Z,42.40
2023-02-03T06:47:51.362Z,42.80
2023-02-03T06:50:18.083Z,39.35
2023-02-03T06:52:45.095Z,41.58
2023-02-03T06:55:11.716Z,40.42
2023-02-03T06:57:45.510Z,41.13
2023-02-03T07:00:15.065Z,40.65
2023-02-03T07:02:43.094Z,38.80
2023-02-03T07:05:09.795Z,40.45
2023-02-03T07:07:36.897Z,39.75
2023-02-03T07:10:03.681Z,40.25
2023-02-03T07:12:31.328Z,38.20
2023-02-03T07:14:57.876Z,40.17
2023-02-03T07:17:24.408Z,40.05
2023-02-03T07:19:50.861Z,40.78
2023-02-03T07:22:17.329Z,39.58
2023-02-03T07:24:43.801Z,38.22
2023-02-03T07:27:10.917Z,37.58
2023-02-03T07:29:37.380Z,36.65
2023-02-03T07:32:04.065Z,38.40
2023-02-03T07:34:30.935Z,33.67
2023-02-03T07:36:57.567Z,35.22
2023-02-03T07:39:24.121Z,34.42
2023-02-03T07:41:50.990Z,33.35
2023-02-03T07:44:17.585Z,33.67
2023-02-03T07:46:45.479Z,34.45
2023-02-03T07:49:12.688Z,30.85
2023-02-03T07:51:39.448Z,30.27
2023-02-03T07:54:06.383Z,31.83
2023-02-03T07:56:33.352Z,28.65
2023-02-03T07:58:59.898Z,29.15
2023-02-03T08:01:26.767Z,27.15
2023-02-03T08:03:55.117Z,28.58
2023-02-03T08:06:22.206Z,29.23
2023-02-03T08:08:48.663Z,27.60
2023-02-03T08:11:15.141Z,26.90
2023-02-03T08:13:41.787Z,23.73
2023-02-03T08:16:08.348Z,24.23
2023-02-03T08:18:34.838Z,24.05
2023-02-03T08:21:03.645Z,23.55
2023-02-03T08:23:31.088Z,21.73
2023-02-03T08:25:57.685Z,22.35
2023-02-03T08:28:24.154Z,21.73
2023-02-03T08:30:50.770Z,21.65
2023-02-03T08:33:17.444Z,19.65
2023-02-03T08:35:48.814Z,20.63
2023-02-03T08:38:15.730Z,19.40
2023-02-03T08:40:42.354Z,18.85
2023-02-03T08:43:09.181Z,19.20
2023-02-03T08:45:35.855Z,19.02
2023-02-03T08:48:02.508Z,17.73
2023-02-03T08:50:29.396Z,18.23
2023-02-03T08:52:56.061Z,19.63
2023-02-03T08:55:22.737Z,18.77
2023-02-03T08:57:49.201Z,18.67
2023-02-03T09:00:16.239Z,18.42
2023-02-03T09:02:42.768Z,17.38
2023-02-03T09:05:09.905Z,15.93
2023-02-03T09:07:36.438Z,16.08
2023-02-03T09:10:05.472Z,16.35
2023-02-03T09:12:31.947Z,15.52
2023-02-03T09:14:58.476Z,16.45
2023-02-03T09:17:24.938Z,15.60
2023-02-03T09:19:51.471Z,15.13
2023-02-03T09:22:17.937Z,13.95
2023-02-03T09:24:44.484Z,13.95
2023-02-03T09:27:10.962Z,12.40
2023-02-03T09:29:37.817Z,13.70
2023-02-03T09:32:08.693Z,12.98
2023-02-03T09:34:35.485Z,9.35
2023-02-03T09:37:02.082Z,13.02
2023-02-03T09:39:28.772Z,11.88
2023-02-03T09:42:25.259Z,11.10
2023-02-03T09:44:54.845Z,11.90
2023-02-03T09:47:29.412Z,10.80
2023-02-03T09:49:59.325Z,10.80
2023-02-03T09:52:32.311Z,10.90
2023-02-03T09:55:16.780Z,10.23
2023-02-03T09:57:51.343Z,10.73
2023-02-03T10:00:26.560Z,9.65
2023-02-03T10:02:56.645Z,11.75
2023-02-03T10:05:54.951Z,9.60
2023-02-03T10:08:24.187Z,9.25
2023-02-03T10:11:12.207Z,9.38
2023-02-03T10:13:56.389Z,9.80
2023-02-03T10:16:44.525Z,8.10
2023-02-03T10:19:17.097Z,7.45
2023-02-03T10:21:51.522Z,8.57
2023-02-03T10:24:30.338Z,8.10
2023-02-03T10:26:57.486Z,10.43
2023-02-03T10:29:32.837Z,7.93
2023-02-03T10:32:00.387Z,7.90
2023-02-03T10:34:27.034Z,7.10
2023-02-03T10:37:09.499Z,6.53
2023-02-03T10:39:46.616Z,7.00
2023-02-03T10:42:13.862Z,6.90
2023-02-03T10:45:00.942Z,6.22
2023-02-03T10:47:29.445Z,5.30
2023-02-03T10:49:57.913Z,5.20
2023-02-03T10:52:35.499Z,4.45
2023-02-03T10:55:07.350Z,3.10
2023-02-03T10:57:39.198Z,1.92
2023-02-03T11:00:16.771Z,1.98
2023-02-03T11:02:43.531Z,1.73
2023-02-03T11:05:21.637Z,2.65
2023-02-03T11:07:49.005Z,1.73
2023-02-03T11:10:36.309Z,2.20
2023-02-03T11:13:13.930Z,2.00
2023-02-03T11:15:45.602Z,2.33
2023-02-03T11:18:35.818Z,1.83
2023-02-03T11:21:11.944Z,2.22
2023-02-03T11:23:47.757Z,2.70
2023-02-03T11:26:18.733Z,2.50
2023-02-03T11:28:48.008Z,2.65
2023-02-03T11:31:21.004Z,4.30
2023-02-03T11:33:50.781Z,3.42
2023-02-03T11:36:18.707Z,3.67
2023-02-03T11:38:45.336Z,4.05
2023-02-03T11:41:37.177Z,4.35
2023-02-03T11:44:12.107Z,5.10
2023-02-03T11:46:40.350Z,4.78
2023-02-03T11:49:35.344Z,4.28
2023-02-03T11:52:13.572Z,4.50
2023-02-03T11:55:06.139Z,3.80
2023-02-03T11:57:51.076Z,4.55
2023-02-03T12:00:35.447Z,4.38
2023-02-03T12:03:05.008Z,5.32
2023-02-03T12:06:08.165Z,3.92
2023-02-03T12:08:44.787Z,4.65
2023-02-03T12:11:13.983Z,5.18
2023-02-03T12:13:52.330Z,4.95
2023-02-03T12:16:38.641Z,6.05
2023-02-03T12:19:32.478Z,5.05
2023-02-03T12:22:31.033Z,4.43
2023-02-03T12:25:21.896Z,5.90
2023-02-03T12:27:54.310Z,6.88
2023-02-03T12:30:39.205Z,7.30
2023-02-03T12:33:23.308Z,5.95
2023-02-03T12:35:59.673Z,6.60
2023-02-03T12:38:49.482Z,6.38
2023-02-03T12:41:26.805Z,6.28
2023-02-03T12:43:58.384Z,6.18
2023-02-03T12:46:30.535Z,8.23
2023-02-03T12:49:02.758Z,7.30
2023-02-03T12:51:41.262Z,6.05
2023-02-03T12:54:55.448Z,6.90
2023-02-03T12:57:29.388Z,6.32
2023-02-03T13:00:50.203Z,7.25
2023-02-03T13:03:28.877Z,6.75
2023-02-03T13:06:19.801Z,6.95
2023-02-03T13:09:05.539Z,6.55
2023-02-03T13:11:40.806Z,5.05
2023-02-03T13:14:12.976Z,4.80
2023-02-03T13:16:44.581Z,4.80
2023-02-03T13:21:47.803Z,5.05
2023-02-03T13:24:14.373Z,5.22
2023-02-03T13:26:48.596Z,4.68
2023-02-03T13:29:36.171Z,4.85
2023-02-03T13:32:14.667Z,4.95
2023-02-03T13:34:59.383Z,3.53
2023-02-03T13:37:47.370Z,2.88
2023-02-03T13:40:28.480Z,4.68
2023-02-03T13:43:06.476Z,4.35
2023-02-03T13:45:40.722Z,4.07
2023-02-03T13:48:14.357Z,4.38
2023-02-03T13:50:41.394Z,4.85
2023-02-03T13:53:16.513Z,5.32
2023-02-03T13:55:51.975Z,5.47
2023-02-03T13:58:28.285Z,4.30
2023-02-03T14:00:56.406Z,5.30
2023-02-03T14:03:29.089Z,4.20
2023-02-03T14:05:57.316Z,5.00
2023-02-03T14:08:26.744Z,5.28
2023-02-03T14:11:30.402Z,5.32
2023-02-03T14:14:20.721Z,5.78
2023-02-03T14:16:54.629Z,5.18
2023-02-03T14:19:21.351Z,5.70
2023-02-03T14:21:58.776Z,5.72
2023-02-03T14:24:41.890Z,6.15
2023-02-03T14:27:21.629Z,6.18
2023-02-03T14:30:09.277Z,6.70
2023-02-03T14:32:54.351Z,6.07
2023-02-03T14:35:25.504Z,6.97
2023-02-03T14:37:55.035Z,6.13
2023-02-03T14:40:53.790Z,6.43
2023-02-03T14:43:32.478Z,7.00
2023-02-03T14:46:13.569Z,6.85
2023-02-03T14:48:42.848Z,8.05
2023-02-03T14:51:20.176Z,8.23
2023-02-03T14:54:18.011Z,7.03
2023-02-03T14:57:31.541Z,8.38
2023-02-03T15:00:00.212Z,6.70
2023-02-03T15:02:31.029Z,7.38
2023-02-03T15:05:12.830Z,6.80
2023-02-03T15:07:46.265Z,8.13
2023-02-03T15:10:19.626Z,7.05
2023-02-03T15:12:47.566Z,7.18
2023-02-03T15:15:21.939Z,6.15
2023-02-03T15:17:50.310Z,7.70
2023-02-03T15:20:41.344Z,6.20
2023-02-03T15:23:22.916Z,4.60
2023-02-03T15:25:59.945Z,6.13
2023-02-03T15:28:29.045Z,5.95
2023-02-03T15:31:01.593Z,6.38
2023-02-03T15:33:31.484Z,5.93
2023-02-03T15:36:15.910Z,6.65
2023-02-03T15:38:49.437Z,5.07
2023-02-03T15:41:24.793Z,5.80
2023-02-03T15:44:32.912Z,6.40
2023-02-03T15:47:01.507Z,6.15
2023-02-03T15:49:40.186Z,6.35
2023-02-03T15:52:09.572Z,6.72
2023-02-03T15:54:45.652Z,5.88
2023-02-03T15:57:24.639Z,5.95
2023-02-03T15:59:55.990Z,6.65
2023-02-03T16:02:33.303Z,6.85
2023-02-03T16:05:06.093Z,5.70
2023-02-03T16:07:32.731Z,4.95
2023-02-03T16:09:59.930Z,6.85
2023-02-03T16:12:34.425Z,5.97
2023-02-03T16:15:01.921Z,6.22
2023-02-03T16:17:29.921Z,5.82
2023-02-03T16:20:11.323Z,5.75
2023-02-03T16:22:46.819Z,6.60
2023-02-03T16:25:28.149Z,6.70
2023-02-03T16:28:19.693Z,6.22
2023-02-03T16:31:33.197Z,6.72
2023-02-03T16:34:20.052Z,7.15
2023-02-03T16:37:05.601Z,6.30
2023-02-03T16:39:50.288Z,6.95
2023-02-03T16:42:37.965Z,7.47
2023-02-03T16:45:32.214Z,6.47
2023-02-03T16:48:17.461Z,5.90
2023-02-03T16:50:53.490Z,7.78
2023-02-03T16:53:24.194Z,6.78
2023-02-03T16:55:52.447Z,6.43
2023-02-03T16:58:18.949Z,7.40
2023-02-03T17:00:47.385Z,6.50
2023-02-03T17:03:16.579Z,7.95
2023-02-03T17:05:45.436Z,6.57
2023-02-03T17:08:12.732Z,7.25
2023-02-03T17:10:41.907Z,6.43
2023-02-03T17:13:09.210Z,7.15
2023-02-03T17:15:44.395Z,7.32
2023-02-03T17:18:11.380Z,6.60
2023-02-03T17:20:38.019Z,7.20
2023-02-03T17:23:04.504Z,7.25
2023-02-03T17:25:36.032Z,6.55
2023-02-03T17:28:07.231Z,6.90
2023-02-03T17:30:35.107Z,6.25
2023-02-03T17:33:03.204Z,6.90
2023-02-03T17:35:30.024Z,7.55
2023-02-03T17:37:56.753Z,6.85
2023-02-03T17:54:06.699Z,6.78
2023-02-03T17:56:35.598Z,6.28
2023-02-03T17:59:04.298Z,6.25
2023-02-03T18:01:31.745Z,7.72
2023-02-03T18:04:00.982Z,7.20
2023-02-03T18:06:29.825Z,7.85
2023-02-03T18:09:01.259Z,6.78
2023-02-03T18:11:29.222Z,6.40
2023-02-03T18:13:56.251Z,8.02
2023-02-03T18:16:26.464Z,6.32
2023-02-03T18:18:53.720Z,7.18
2023-02-03T18:21:22.125Z,6.85
2023-02-03T18:23:49.453Z,5.90
2023-02-03T18:26:15.941Z,6.63
2023-02-03T18:28:42.425Z,6.35
2023-02-03T18:31:11.959Z,5.15
2023-02-03T18:33:38.770Z,7.68
2023-02-03T18:36:06.494Z,5.95
2023-02-03T18:38:34.739Z,7.93
2023-02-03T18:41:08.786Z,7.03
2023-02-03T18:43:35.963Z,6.20
2023-02-03T18:46:10.409Z,5.55
2023-02-03T18:48:37.425Z,6.28
2023-02-03T18:51:08.473Z,6.72
2023-02-03T18:53:35.973Z,3.58
2023-02-03T18:56:06.381Z,5.68
2023-02-03T18:58:33.436Z,5.45
2023-02-03T19:01:00.601Z,6.70
2023-02-03T19:03:27.381Z,5.43
2023-02-03T19:05:54.237Z,5.93
2023-02-03T19:08:20.942Z,5.65
2023-02-03T19:10:51.714Z,5.57
2023-02-03T19:13:19.627Z,5.10
2023-02-03T19:15:48.270Z,5.97
2023-02-03T19:18:15.729Z,6.40
2023-02-03T19:20:43.836Z,5.43
2023-02-03T19:23:13.093Z,6.78
2023-02-03T19:25:40.026Z,4.90
2023-02-03T19:28:14.181Z,4.93
2023-02-03T19:30:44.328Z,5.03
2023-02-03T19:33:10.792Z,5.18
2023-02-03T19:35:37.243Z,4.53
2023-02-03T19:38:03.650Z,6.45
2023-02-03T19:40:30.800Z,5.63
2023-02-03T19:42:57.488Z,5.20
2023-02-03T19:45:23.983Z,5.15
2023-02-03T19:47:50.407Z,5.60
2023-02-03T19:50:17.315Z,5.20
2023-02-03T19:52:43.855Z,5.40
2023-02-03T19:55:10.359Z,6.30
2023-02-03T19:57:36.830Z,5.35
2023-02-03T20:00:03.682Z,5.43
2023-02-03T20:02:30.099Z,4.90
2023-02-03T20:04:57.533Z,5.30
2023-02-03T20:07:25.281Z,4.72
2023-02-03T20:09:51.804Z,5.50
2023-02-03T20:12:18.211Z,4.53
2023-02-03T20:14:44.662Z,4.65
2023-02-03T20:17:11.128Z,4.05
2023-02-03T20:19:37.539Z,3.47
2023-02-03T20:22:04.095Z,3.35
2023-02-03T20:24:30.547Z,3.90
2023-02-03T20:26:57.028Z,4.22
2023-02-03T20:29:23.548Z,3.13
2023-02-03T20:31:50.857Z,3.38
2023-02-03T20:34:18.910Z,3.83
2023-02-03T20:36:45.386Z,3.88
2023-02-03T20:39:18.193Z,3.72
2023-02-03T20:41:45.123Z,3.67
2023-02-03T20:44:14.444Z,2.88
2023-02-03T20:46:41.577Z,3.15
2023-02-03T20:49:16.880Z,2.30
2023-02-03T20:51:43.322Z,2.80
2023-02-03T20:54:18.429Z,2.53
2023-02-03T20:56:45.503Z,3.45
2023-02-03T20:59:13.431Z,3.28
2023-02-03T21:01:39.993Z,2.65
2023-02-03T21:04:33.775Z,2.35
2023-02-03T21:07:01.458Z,2.50
2023-02-03T21:09:27.865Z,3.13
2023-02-03T21:11:55.341Z,2.83
2023-02-03T21:14:29.296Z,2.05
2023-02-03T21:16:55.706Z,2.45
2023-02-03T21:19:33.581Z,1.95
2023-02-03T21:22:14.836Z,1.40
2023-02-03T21:24:45.615Z,1.38
2023-02-03T21:27:24.321Z,1.50
2023-02-03T21:29:51.853Z,1.65
2023-02-03T21:32:18.275Z,1.02
2023-02-03T21:34:45.690Z,1.10
2023-02-03T21:37:21.187Z,0.98
2023-02-03T21:39:48.953Z,1.15
2023-02-03T21:42:43.548Z,1.17
2023-02-03T21:45:21.882Z,1.00
2023-02-03T21:47:51.812Z,1.23
2023-02-03T21:50:31.217Z,1.02
2023-02-03T21:53:10.349Z,1.05
2023-02-03T21:55:38.773Z,0.75
2023-02-03T21:58:32.325Z,1.00
2023-02-03T22:01:00.867Z,1.00
2023-02-03T22:03:36.316Z,1.55
2023-02-03T22:06:08.713Z,0.98
2023-02-03T22:08:41.526Z,1.30
2023-02-03T22:11:08.551Z,0.95
2023-02-03T22:13:35.170Z,0.95
2023-02-03T22:16:01.983Z,0.77
2023-02-03T22:18:28.500Z,0.80
2023-02-03T22:20:54.931Z,1.08
2023-02-03T22:23:21.941Z,0.75
2023-02-03T22:25:49.162Z,0.88
2023-02-03T22:28:15.660Z,1.30
2023-02-03T22:30:42.317Z,0.90
2023-02-03T22:33:08.849Z,0.82
2023-02-03T22:35:35.475Z,1.27
2023-02-03T22:38:01.948Z,0.90
2023-02-03T22:40:28.878Z,0.85
2023-02-03T22:42:55.586Z,1.55
2023-02-03T22:45:22.172Z,1.10
2023-02-03T22:47:48.575Z,0.88
2023-02-03T22:50:17.320Z,0.88
2023-02-03T22:52:44.114Z,0.98
2023-02-03T22:55:10.824Z,1.50
2023-02-03T22:57:38.161Z,0.98
2023-02-03T23:00:11.019Z,1.00
2023-02-03T23:02:40.936Z,1.10
2023-02-03T23:05:09.345Z,1.13
2023-02-03T23:07:37.229Z,1.30
2023-02-03T23:10:05.237Z,1.13
2023-02-03T23:12:31.767Z,1.23
2023-02-03T23:14:58.426Z,1.17
2023-02-03T23:17:25.315Z,1.20
2023-02-03T23:19:51.757Z,1.10
2023-02-03T23:22:18.287Z,1.10
2023-02-03T23:24:45.756Z,1.33
2023-02-03T23:27:12.571Z,1.52
2023-02-03T23:29:39.235Z,1.55
2023-02-03T23:32:06.271Z,1.27
2023-02-03T23:34:51.908Z,1.10
2023-02-03T23:37:19.055Z,1.13
2023-02-03T23:39:45.515Z,1.38
2023-02-03T23:42:11.937Z,1.65
2023-02-03T23:44:38.436Z,1.60
2023-02-03T23:47:05.130Z,1.50
2023-02-03T23:49:31.531Z,1.70
2023-02-03T23:51:58.253Z,1.88
2023-02-03T23:54:25.439Z,1.42
2023-02-03T23:56:52.918Z,1.35
2023-02-03T23:59:19.986Z,1.60
